Time,TemperatureF,DewpointF,PressureIn,WindDirection,WindDirectionDegrees,WindSpeedMPH,WindSpeedGustMPH,Humidity,HourlyPrecipIn,Conditions,Clouds,dailyrainin,SoftwareType,DateUTC
2013-02-01 00:03:00,10.3,3.4,30.54,NNE,20,0.0,1.0,73,0.00,,---,0.00,VWS V14.01,2013-02-01 06:03:00,
2013-02-01 00:08:00,10.1,3.2,30.54,NNE,20,0.0,0.0,73,0.00,,---,0.00,VWS V14.01,2013-02-01 06:08:00,
2013-02-01 00:13:00,9.8,2.9,30.44,NNE,20,0.0,0.0,73,0.00,,---,0.00,VWS V14.01,2013-02-01 06:13:00,
2013-02-01 00:18:00,9.6,3.0,30.54,NNE,20,0.0,0.0,74,0.00,,---,0.00,VWS V14.01,2013-02-01 06:18:00,
2013-02-01 00:23:00,9.4,2.8,30.45,NNE,20,0.0,0.0,74,0.00,,---,0.00,VWS V14.01,2013-02-01 06:23:00,
2013-02-01 00:28:00,9.4,3.1,30.45,NNE,20,1.0,1.0,75,0.00,,---,0.00,VWS V14.01,2013-02-01 06:28:00,
2013-02-01 00:33:00,9.5,3.2,30.45,NNE,20,0.0,1.0,75,0.00,,---,0.00,VWS V14.01,2013-02-01 06:33:00,
2013-02-01 00:38:00,9.5,2.9,30.44,NNE,20,0.0,0.0,74,0.00,,---,0.00,VWS V14.01,2013-02-01 06:38:00,
2013-02-01 00:43:00,9.4,3.1,30.44,NNE,20,0.0,0.0,75,0.00,,---,0.00,VWS V14.01,2013-02-01 06:43:00,
2013-02-01 00:48:00,9.3,3.0,30.53,NNE,20,0.0,0.0,75,0.00,,---,0.00,VWS V14.01,2013-02-01 06:48:00,
2013-02-01 00:53:00,9.2,3.2,30.44,NNE,20,0.0,0.0,76,0.00,,---,0.00,VWS V14.01,2013-02-01 06:53:00,
2013-02-01 00:58:00,9.0,3.0,30.44,NNE,20,0.0,0.0,76,0.00,,---,0.00,VWS V14.01,2013-02-01 06:58:00,
2013-02-01 01:03:00,8.7,3.0,30.44,NNE,20,0.0,0.0,77,0.00,,---,0.00,VWS V14.01,2013-02-01 07:03:00,
2013-02-01 01:08:00,8.5,2.8,30.53,NNE,20,0.0,0.0,77,0.00,,---,0.00,VWS V14.01,2013-02-01 07:08:00,
2013-02-01 01:13:00,8.4,2.7,30.53,NNE,20,0.0,0.0,77,0.00,,---,0.00,VWS V14.01,2013-02-01 07:13:00,
2013-02-01 01:18:00,8.2,2.8,30.44,NNE,20,0.0,0.0,78,0.00,,---,0.00,VWS V14.01,2013-02-01 07:18:00,
2013-02-01 01:23:00,8.2,2.8,30.53,NNE,20,0.0,0.0,78,0.00,,---,0.00,VWS V14.01,2013-02-01 07:23:00,
2013-02-01 01:28:00,8.2,3.0,30.52,NNE,20,0.0,0.0,79,0.00,,---,0.00,VWS V14.01,2013-02-01 07:28:00,
2013-02-01 01:33:00,8.1,3.0,30.43,NNE,20,0.0,0.0,79,0.00,,---,0.00,VWS V14.01,2013-02-01 07:33:00,
2013-02-01 01:38:00,8.1,3.0,30.52,NNE,20,0.0,0.0,79,0.00,,---,0.00,VWS V14.01,2013-02-01 07:38:00,
2013-02-01 01:43:00,8.1,3.0,30.51,NNE,20,0.0,1.0,79,0.00,,---,0.00,VWS V14.01,2013-02-01 07:43:00,
2013-02-01 01:48:00,8.1,3.2,30.43,NNE,20,0.0,0.0,80,0.00,,---,0.00,VWS V14.01,2013-02-01 07:48:00,
2013-02-01 01:53:00,8.1,3.2,30.51,NNE,20,0.0,0.0,80,0.00,,---,0.00,VWS V14.01,2013-02-01 07:53:00,
2013-02-01 01:58:00,8.0,3.1,30.42,NNE,20,0.0,0.0,80,0.00,,---,0.00,VWS V14.01,2013-02-01 07:58:00,
2013-02-01 02:03:00,7.9,3.0,30.51,NNE,20,0.0,0.0,80,0.00,,---,0.00,VWS V14.01,2013-02-01 08:03:00,
2013-02-01 02:08:00,7.9,3.0,30.42,NNE,20,1.0,2.0,80,0.00,,---,0.00,VWS V14.01,2013-02-01 08:08:00,
2013-02-01 02:13:00,8.0,3.4,30.41,NNE,20,1.0,2.0,81,0.00,,---,0.00,VWS V14.01,2013-02-01 08:13:00,
2013-02-01 02:18:00,8.1,3.8,30.50,NNE,20,0.0,2.0,82,0.00,,---,0.00,VWS V14.01,2013-02-01 08:18:00,
2013-02-01 02:23:00,8.1,3.8,30.42,NNE,20,2.0,2.0,82,0.00,,---,0.00,VWS V14.01,2013-02-01 08:23:00,
2013-02-01 02:28:00,8.1,3.8,30.52,NNE,20,0.0,1.0,82,0.00,,---,0.00,VWS V14.01,2013-02-01 08:28:00,
2013-02-01 02:33:00,8.1,3.8,30.52,NNE,20,0.0,0.0,82,0.00,,---,0.00,VWS V14.01,2013-02-01 08:33:00,
2013-02-01 02:38:00,8.1,3.5,30.42,NNE,20,0.0,0.0,81,0.00,,---,0.00,VWS V14.01,2013-02-01 08:38:00,
2013-02-01 02:43:00,8.1,3.5,30.41,NNE,20,0.0,0.0,81,0.00,,---,0.00,VWS V14.01,2013-02-01 08:43:00,
2013-02-01 02:48:00,8.1,3.5,30.41,NNE,20,0.0,0.0,81,0.00,,---,0.00,VWS V14.01,2013-02-01 08:48:00,
2013-02-01 02:53:00,8.1,3.5,30.42,NNE,20,0.0,0.0,81,0.00,,---,0.00,VWS V14.01,2013-02-01 08:53:00,
2013-02-01 02:57:00,8.1,3.5,30.42,NNE,20,0.0,0.0,81,0.00,,---,0.00,VWS V14.01,2013-02-01 08:57:00,
2013-02-01 03:02:00,8.1,3.5,30.51,NNE,20,0.0,0.0,81,0.00,,---,0.00,VWS V14.01,2013-02-01 09:02:00,
2013-02-01 03:07:00,8.1,3.5,30.42,NNE,20,0.0,0.0,81,0.00,,---,0.00,VWS V14.01,2013-02-01 09:07:00,
2013-02-01 03:12:00,8.0,3.1,30.41,NNE,20,0.0,0.0,80,0.00,,---,0.00,VWS V14.01,2013-02-01 09:12:00,
2013-02-01 03:17:00,8.1,3.2,30.40,NNE,20,1.0,1.0,80,0.00,,---,0.00,VWS V14.01,2013-02-01 09:17:00,
2013-02-01 03:22:00,8.1,3.5,30.40,NNE,20,0.0,0.0,81,0.00,,---,0.00,VWS V14.01,2013-02-01 09:22:00,
2013-02-01 03:27:00,8.1,3.5,30.49,NNE,20,0.0,0.0,81,0.00,,---,0.00,VWS V14.01,2013-02-01 09:27:00,
2013-02-01 03:32:00,8.1,3.5,30.48,NNE,20,0.0,0.0,81,0.00,,---,0.00,VWS V14.01,2013-02-01 09:32:00,
2013-02-01 03:37:00,8.1,3.5,30.48,NNE,20,2.0,2.0,81,0.00,,---,0.00,VWS V14.01,2013-02-01 09:37:00,
2013-02-01 03:42:00,8.1,3.5,30.38,East,83,2.0,4.0,81,0.00,,---,0.00,VWS V14.01,2013-02-01 09:42:00,
2013-02-01 03:47:00,8.3,3.7,30.37,East,80,0.0,3.0,81,0.00,,---,0.00,VWS V14.01,2013-02-01 09:47:00,
2013-02-01 03:52:00,8.5,3.9,30.37,East,93,1.0,4.0,81,0.00,,---,0.00,VWS V14.01,2013-02-01 09:52:00,
2013-02-01 03:57:00,8.7,4.1,30.38,East,93,2.0,4.0,81,0.00,,---,0.00,VWS V14.01,2013-02-01 09:57:00,
2013-02-01 04:02:00,9.1,4.5,30.48,East,92,0.0,3.0,81,0.00,,---,0.00,VWS V14.01,2013-02-01 10:02:00,
2013-02-01 04:07:00,9.2,4.3,30.38,East,92,0.0,2.0,80,0.00,,---,0.00,VWS V14.01,2013-02-01 10:07:00,
2013-02-01 04:12:00,9.2,4.0,30.48,East,92,0.0,0.0,79,0.00,,---,0.00,VWS V14.01,2013-02-01 10:12:00,
2013-02-01 04:17:00,9.2,4.0,30.39,East,92,0.0,0.0,79,0.00,,---,0.00,VWS V14.01,2013-02-01 10:17:00,
2013-02-01 04:22:00,9.1,3.9,30.38,East,92,0.0,0.0,79,0.00,,---,0.00,VWS V14.01,2013-02-01 10:22:00,
2013-02-01 04:27:00,9.0,3.8,30.48,East,92,0.0,2.0,79,0.00,,---,0.00,VWS V14.01,2013-02-01 10:27:00,
2013-02-01 04:32:00,9.0,3.8,30.39,East,92,0.0,1.0,79,0.00,,---,0.00,VWS V14.01,2013-02-01 10:32:00,
2013-02-01 04:37:00,8.9,3.7,30.48,East,92,0.0,1.0,79,0.00,,---,0.00,VWS V14.01,2013-02-01 10:37:00,
2013-02-01 04:42:00,8.7,3.5,30.39,East,92,0.0,0.0,79,0.00,,---,0.00,VWS V14.01,2013-02-01 10:42:00,
2013-02-01 04:47:00,8.7,3.5,30.39,East,92,0.0,0.0,79,0.00,,---,0.00,VWS V14.01,2013-02-01 10:47:00,
2013-02-01 04:52:00,8.5,3.3,30.39,East,92,0.0,0.0,79,0.00,,---,0.00,VWS V14.01,2013-02-01 10:52:00,
2013-02-01 04:57:00,8.4,3.2,30.40,East,92,0.0,0.0,79,0.00,,---,0.00,VWS V14.01,2013-02-01 10:57:00,
2013-02-01 05:02:00,8.3,3.4,30.49,East,92,0.0,0.0,80,0.00,,---,0.00,VWS V14.01,2013-02-01 11:02:00,
2013-02-01 05:07:00,8.2,3.3,30.40,East,92,0.0,0.0,80,0.00,,---,0.00,VWS V14.01,2013-02-01 11:07:00,
2013-02-01 05:12:00,8.1,3.2,30.49,East,92,0.0,0.0,80,0.00,,---,0.00,VWS V14.01,2013-02-01 11:12:00,
2013-02-01 05:17:00,7.9,3.0,30.49,East,92,0.0,0.0,80,0.00,,---,0.00,VWS V14.01,2013-02-01 11:17:00,
2013-02-01 05:22:00,7.8,3.2,30.38,East,92,0.0,0.0,81,0.00,,---,0.00,VWS V14.01,2013-02-01 11:22:00,
2013-02-01 05:27:00,7.8,3.2,30.48,East,92,0.0,0.0,81,0.00,,---,0.00,VWS V14.01,2013-02-01 11:27:00,
2013-02-01 05:32:00,7.8,3.2,30.39,East,92,0.0,0.0,81,0.00,,---,0.00,VWS V14.01,2013-02-01 11:32:00,
2013-02-01 05:37:00,7.7,3.1,30.38,East,92,0.0,0.0,81,0.00,,---,0.00,VWS V14.01,2013-02-01 11:37:00,
2013-02-01 05:42:00,7.7,3.1,30.48,East,92,0.0,0.0,81,0.00,,---,0.00,VWS V14.01,2013-02-01 11:42:00,
2013-02-01 05:47:00,7.6,3.3,30.38,East,92,0.0,0.0,82,0.00,,---,0.00,VWS V14.01,2013-02-01 11:47:00,
2013-02-01 05:52:00,7.6,3.3,30.49,East,92,0.0,1.0,82,0.00,,---,0.00,VWS V14.01,2013-02-01 11:52:00,
2013-02-01 05:57:00,7.6,3.3,30.49,East,92,0.0,0.0,82,0.00,,---,0.00,VWS V14.01,2013-02-01 11:57:00,
2013-02-01 06:02:00,7.5,3.4,30.49,East,92,1.0,2.0,83,0.00,,---,0.00,VWS V14.01,2013-02-01 12:02:00,
2013-02-01 06:07:00,7.6,3.5,30.50,East,92,0.0,1.0,83,0.00,,---,0.00,VWS V14.01,2013-02-01 12:07:00,
2013-02-01 06:12:00,7.6,3.5,30.41,East,92,0.0,2.0,83,0.00,,---,0.00,VWS V14.01,2013-02-01 12:12:00,
2013-02-01 06:17:00,7.6,3.5,30.41,East,92,2.0,2.0,83,0.00,,---,0.00,VWS V14.01,2013-02-01 12:17:00,
2013-02-01 06:22:00,7.6,3.5,30.41,East,92,0.0,2.0,83,0.00,,---,0.00,VWS V14.01,2013-02-01 12:22:00,
2013-02-01 06:27:00,7.5,3.4,30.51,SW,225,3.0,3.0,83,0.00,,---,0.00,VWS V14.01,2013-02-01 12:27:00,
2013-02-01 06:32:00,7.5,3.4,30.51,SW,225,2.0,3.0,83,0.00,,---,0.00,VWS V14.01,2013-02-01 12:32:00,
2013-02-01 06:37:00,7.4,3.6,30.52,SW,225,1.0,2.0,84,0.00,,---,0.00,VWS V14.01,2013-02-01 12:37:00,
2013-02-01 06:42:00,7.3,3.2,30.42,SW,226,4.0,4.0,83,0.00,,---,0.00,VWS V14.01,2013-02-01 12:42:00,
2013-02-01 06:47:00,7.2,3.1,30.42,SW,214,1.0,3.0,83,0.00,,---,0.00,VWS V14.01,2013-02-01 12:47:00,
2013-02-01 06:52:00,7.2,3.1,30.42,SW,214,0.0,0.0,83,0.00,,---,0.00,VWS V14.01,2013-02-01 12:52:00,
2013-02-01 06:57:00,7.2,3.1,30.51,SW,214,0.0,0.0,83,0.00,,---,0.00,VWS V14.01,2013-02-01 12:57:00,
2013-02-01 07:02:00,7.1,3.0,30.51,SW,214,0.0,0.0,83,0.00,,---,0.00,VWS V14.01,2013-02-01 13:02:00,
2013-02-01 07:07:00,7.1,3.0,30.51,SW,214,0.0,0.0,83,0.00,,---,0.00,VWS V14.01,2013-02-01 13:07:00,
2013-02-01 07:12:00,7.1,3.0,30.41,SW,214,0.0,0.0,83,0.00,,---,0.00,VWS V14.01,2013-02-01 13:12:00,
2013-02-01 07:17:00,7.0,2.9,30.51,SW,214,0.0,0.0,83,0.00,,---,0.00,VWS V14.01,2013-02-01 13:17:00,
2013-02-01 07:22:00,7.0,2.9,30.51,SW,214,0.0,0.0,83,0.00,,---,0.00,VWS V14.01,2013-02-01 13:22:00,
2013-02-01 07:27:00,6.9,2.8,30.42,SW,214,0.0,0.0,83,0.00,,---,0.00,VWS V14.01,2013-02-01 13:27:00,
2013-02-01 07:32:00,6.9,3.1,30.42,SW,214,0.0,0.0,84,0.00,,---,0.00,VWS V14.01,2013-02-01 13:32:00,
2013-02-01 07:37:00,6.8,3.0,30.42,SW,214,0.0,0.0,84,0.00,,---,0.00,VWS V14.01,2013-02-01 13:37:00,
2013-02-01 07:42:00,6.8,3.0,30.52,SW,214,0.0,0.0,84,0.00,,---,0.00,VWS V14.01,2013-02-01 13:42:00,
2013-02-01 07:47:00,6.8,2.7,30.52,SW,214,0.0,0.0,83,0.00,,---,0.00,VWS V14.01,2013-02-01 13:47:00,
2013-02-01 07:52:00,6.8,3.0,30.52,SW,214,0.0,0.0,84,0.00,,---,0.00,VWS V14.01,2013-02-01 13:52:00,
2013-02-01 07:57:00,6.9,3.1,30.51,SW,214,0.0,0.0,84,0.00,,---,0.00,VWS V14.01,2013-02-01 13:57:00,
2013-02-01 08:02:00,7.1,3.3,30.42,SW,214,0.0,0.0,84,0.00,,---,0.00,VWS V14.01,2013-02-01 14:02:00,
2013-02-01 08:07:00,7.2,3.4,30.42,SW,214,0.0,0.0,84,0.00,,---,0.00,VWS V14.01,2013-02-01 14:07:00,
2013-02-01 08:12:00,7.5,3.9,30.51,SW,214,0.0,0.0,85,0.00,,---,0.00,VWS V14.01,2013-02-01 14:12:00,
2013-02-01 08:17:00,8.0,4.4,30.41,SW,214,0.0,1.0,85,0.00,,---,0.00,VWS V14.01,2013-02-01 14:17:00,
2013-02-01 08:22:00,9.8,5.9,30.41,SW,214,1.0,1.0,84,0.00,,---,0.00,VWS V14.01,2013-02-01 14:22:00,
2013-02-01 08:27:00,10.4,5.7,30.51,SW,214,0.0,1.0,81,0.00,,---,0.00,VWS V14.01,2013-02-01 14:27:00,
2013-02-01 08:32:00,11.1,5.9,30.41,SW,214,0.0,1.0,79,0.00,,---,0.00,VWS V14.01,2013-02-01 14:32:00,
2013-02-01 08:37:00,11.8,6.3,30.41,SW,214,0.0,2.0,78,0.00,,---,0.00,VWS V14.01,2013-02-01 14:37:00,
2013-02-01 08:42:00,12.3,6.5,30.42,SW,214,0.0,2.0,77,0.00,,---,0.00,VWS V14.01,2013-02-01 14:42:00,
2013-02-01 08:47:00,12.6,6.2,30.42,SSW,212,0.0,3.0,75,0.00,,---,0.00,VWS V14.01,2013-02-01 14:47:00,
2013-02-01 08:52:00,12.7,6.3,30.52,South,172,4.0,5.0,75,0.00,,---,0.00,VWS V14.01,2013-02-01 14:52:00,
2013-02-01 08:57:00,13.1,6.7,30.42,South,176,1.0,3.0,75,0.00,,---,0.00,VWS V14.01,2013-02-01 14:57:00,
2013-02-01 09:02:00,13.3,6.6,30.51,SSE,165,3.0,6.0,74,0.00,,---,0.00,VWS V14.01,2013-02-01 15:02:00,
2013-02-01 09:07:00,13.9,7.2,30.51,South,175,0.0,3.0,74,0.00,,---,0.00,VWS V14.01,2013-02-01 15:07:00,
2013-02-01 09:12:00,14.2,6.5,30.41,SSE,149,2.0,3.0,71,0.00,,---,0.00,VWS V14.01,2013-02-01 15:12:00,
2013-02-01 09:17:00,14.6,6.9,30.41,South,181,0.0,5.0,71,0.00,,---,0.00,VWS V14.01,2013-02-01 15:17:00,
2013-02-01 09:22:00,15.0,7.3,30.41,South,181,2.0,3.0,71,0.00,,---,0.00,VWS V14.01,2013-02-01 15:22:00,
2013-02-01 09:27:00,15.6,8.2,30.50,SSE,165,0.0,6.0,72,0.00,,---,0.00,VWS V14.01,2013-02-01 15:27:00,
2013-02-01 09:32:00,16.4,8.3,30.40,South,180,3.0,6.0,70,0.00,,---,0.00,VWS V14.01,2013-02-01 15:32:00,
2013-02-01 09:37:00,17.1,9.0,30.40,SSE,147,4.0,7.0,70,0.00,,---,0.00,VWS V14.01,2013-02-01 15:37:00,
2013-02-01 09:42:00,17.1,8.7,30.49,SSW,213,3.0,7.0,69,0.00,,---,0.00,VWS V14.01,2013-02-01 15:42:00,
2013-02-01 09:47:00,17.2,8.8,30.49,South,170,3.0,10.0,69,0.00,,---,0.00,VWS V14.01,2013-02-01 15:47:00,
2013-02-01 09:52:00,17.4,8.7,30.39,NW,304,0.0,7.0,68,0.00,,---,0.00,VWS V14.01,2013-02-01 15:52:00,
2013-02-01 09:57:00,17.9,9.1,30.49,SSE,149,3.0,5.0,68,0.00,,---,0.00,VWS V14.01,2013-02-01 15:57:00,
2013-02-01 10:02:00,18.4,9.9,30.39,South,182,1.0,3.0,69,0.00,,---,0.00,VWS V14.01,2013-02-01 16:02:00,
2013-02-01 10:07:00,18.6,9.5,30.48,SSW,207,3.0,9.0,67,0.00,,---,0.00,VWS V14.01,2013-02-01 16:07:00,
2013-02-01 10:12:00,18.5,9.4,30.48,South,184,3.0,7.0,67,0.00,,---,0.00,VWS V14.01,2013-02-01 16:12:00,
2013-02-01 10:17:00,18.8,9.7,30.48,WSW,258,1.0,8.0,67,0.00,,---,0.00,VWS V14.01,2013-02-01 16:17:00,
2013-02-01 10:22:00,19.0,9.9,30.48,SW,225,0.0,6.0,67,0.00,,---,0.00,VWS V14.01,2013-02-01 16:22:00,
2013-02-01 10:27:00,19.5,10.3,30.48,SW,220,4.0,7.0,67,0.00,,---,0.00,VWS V14.01,2013-02-01 16:27:00,
2013-02-01 10:32:00,19.3,10.1,30.38,West,266,3.0,7.0,67,0.00,,---,0.00,VWS V14.01,2013-02-01 16:32:00,
2013-02-01 10:37:00,20.1,10.9,30.38,West,262,3.0,6.0,67,0.00,,---,0.00,VWS V14.01,2013-02-01 16:37:00,
2013-02-01 10:42:00,20.3,11.1,30.38,SW,216,8.0,8.0,67,0.00,,---,0.00,VWS V14.01,2013-02-01 16:42:00,
2013-02-01 10:47:00,20.0,10.1,30.38,South,180,5.0,5.0,65,0.00,,---,0.00,VWS V14.01,2013-02-01 16:47:00,
2013-02-01 10:52:00,20.7,10.8,30.48,SSE,168,3.0,6.0,65,0.00,,---,0.00,VWS V14.01,2013-02-01 16:52:00,
2013-02-01 10:57:00,21.1,11.2,30.37,South,180,4.0,4.0,65,0.00,,---,0.00,VWS V14.01,2013-02-01 16:57:00,
2013-02-01 11:02:00,21.8,12.2,30.37,SSE,165,6.0,9.0,66,0.00,,---,0.00,VWS V14.01,2013-02-01 17:02:00,
2013-02-01 11:07:00,21.7,11.4,30.46,SSE,166,3.0,7.0,64,0.00,,---,0.00,VWS V14.01,2013-02-01 17:07:00,
2013-02-01 11:12:00,21.9,10.9,30.36,WSW,241,2.0,4.0,62,0.00,,---,0.00,VWS V14.01,2013-02-01 17:12:00,
2013-02-01 11:17:00,22.2,11.2,30.46,SSE,166,2.0,11.0,62,0.00,,---,0.00,VWS V14.01,2013-02-01 17:17:00,
2013-02-01 11:22:00,22.3,10.9,30.35,SSE,158,5.0,7.0,61,0.00,,---,0.00,VWS V14.01,2013-02-01 17:22:00,
2013-02-01 11:27:00,22.4,11.0,30.45,SSE,149,6.0,11.0,61,0.00,,---,0.00,VWS V14.01,2013-02-01 17:27:00,
2013-02-01 11:32:00,23.1,11.7,30.35,South,177,5.0,11.0,61,0.00,,---,0.00,VWS V14.01,2013-02-01 17:32:00,
2013-02-01 11:37:00,23.4,12.3,30.35,SSE,149,6.0,6.0,62,0.00,,---,0.00,VWS V14.01,2013-02-01 17:37:00,
2013-02-01 11:42:00,23.7,12.2,30.34,South,190,4.0,4.0,61,0.00,,---,0.00,VWS V14.01,2013-02-01 17:42:00,
2013-02-01 11:47:00,23.8,12.3,30.34,SSE,165,7.0,8.0,61,0.00,,---,0.00,VWS V14.01,2013-02-01 17:47:00,
2013-02-01 11:51:00,23.5,12.0,30.34,SSE,151,3.0,8.0,61,0.00,,---,0.00,VWS V14.01,2013-02-01 17:51:00,
2013-02-01 11:56:00,23.5,12.0,30.34,SSE,167,6.0,11.0,61,0.00,,---,0.00,VWS V14.01,2013-02-01 17:56:00,
2013-02-01 12:01:00,23.3,11.9,30.34,SSE,160,8.0,8.0,61,0.00,,---,0.00,VWS V14.01,2013-02-01 18:01:00,
2013-02-01 12:06:00,23.6,12.1,30.33,SSW,207,2.0,5.0,61,0.00,,---,0.00,VWS V14.01,2013-02-01 18:06:00,
2013-02-01 12:11:00,23.8,12.3,30.43,West,276,1.0,4.0,61,0.00,,---,0.00,VWS V14.01,2013-02-01 18:11:00,
2013-02-01 12:16:00,23.5,12.0,30.33,South,188,5.0,9.0,61,0.00,,---,0.00,VWS V14.01,2013-02-01 18:16:00,
2013-02-01 12:21:00,23.4,11.9,30.32,SW,231,4.0,4.0,61,0.00,,---,0.00,VWS V14.01,2013-02-01 18:21:00,
2013-02-01 12:26:00,23.4,12.3,30.32,SW,230,5.0,8.0,62,0.00,,---,0.00,VWS V14.01,2013-02-01 18:26:00,
2013-02-01 12:31:00,24.0,12.9,30.41,SW,234,2.0,6.0,62,0.00,,---,0.00,VWS V14.01,2013-02-01 18:31:00,
2013-02-01 12:36:00,23.9,12.8,30.41,SSE,164,5.0,8.0,62,0.00,,---,0.00,VWS V14.01,2013-02-01 18:36:00,
2013-02-01 12:41:00,24.4,13.6,30.31,SSW,193,0.0,5.0,63,0.00,,---,0.00,VWS V14.01,2013-02-01 18:41:00,
2013-02-01 12:46:00,25.1,14.3,30.31,South,175,4.0,11.0,63,0.00,,---,0.00,VWS V14.01,2013-02-01 18:46:00,
2013-02-01 12:51:00,25.5,14.3,30.31,South,179,5.0,8.0,62,0.00,,---,0.00,VWS V14.01,2013-02-01 18:51:00,
2013-02-01 12:56:00,25.1,13.2,30.30,SW,228,5.0,5.0,60,0.00,,---,0.00,VWS V14.01,2013-02-01 18:56:00,
2013-02-01 13:01:00,25.2,14.0,30.40,SW,224,5.0,10.0,62,0.00,,---,0.00,VWS V14.01,2013-02-01 19:01:00,
2013-02-01 13:06:00,25.6,14.4,30.39,SSE,155,1.0,6.0,62,0.00,,---,0.00,VWS V14.01,2013-02-01 19:06:00,
2013-02-01 13:11:00,26.2,15.3,30.29,SW,220,4.0,6.0,63,0.00,,---,0.00,VWS V14.01,2013-02-01 19:11:00,
2013-02-01 13:16:00,25.8,14.2,30.29,WSW,243,3.0,5.0,61,0.00,,---,0.00,VWS V14.01,2013-02-01 19:16:00,
2013-02-01 13:21:00,26.2,14.2,30.38,SSE,166,4.0,9.0,60,0.00,,---,0.00,VWS V14.01,2013-02-01 19:21:00,
2013-02-01 13:26:00,26.7,14.3,30.38,South,175,2.0,6.0,59,0.00,,---,0.00,VWS V14.01,2013-02-01 19:26:00,
2013-02-01 13:31:00,26.8,14.0,30.29,South,185,5.0,8.0,58,0.00,,---,0.00,VWS V14.01,2013-02-01 19:31:00,
2013-02-01 13:36:00,26.6,13.4,30.38,South,174,4.0,8.0,57,0.00,,---,0.00,VWS V14.01,2013-02-01 19:36:00,
2013-02-01 13:41:00,26.7,13.9,30.38,South,178,7.0,7.0,58,0.00,,---,0.00,VWS V14.01,2013-02-01 19:41:00,
2013-02-01 13:46:00,26.6,13.0,30.38,South,189,6.0,8.0,56,0.00,,---,0.00,VWS V14.01,2013-02-01 19:46:00,
2013-02-01 13:51:00,27.0,13.8,30.37,South,180,3.0,7.0,57,0.00,,---,0.00,VWS V14.01,2013-02-01 19:51:00,
2013-02-01 13:56:00,26.5,12.9,30.28,WSW,246,2.0,3.0,56,0.00,,---,0.00,VWS V14.01,2013-02-01 19:56:00,
2013-02-01 14:01:00,26.9,13.3,30.27,SW,234,2.0,5.0,56,0.00,,---,0.00,VWS V14.01,2013-02-01 20:01:00,
2013-02-01 14:06:00,26.9,13.7,30.27,South,174,2.0,3.0,57,0.00,,---,0.00,VWS V14.01,2013-02-01 20:06:00,
2013-02-01 14:11:00,27.2,14.0,30.36,South,186,4.0,7.0,57,0.00,,---,0.00,VWS V14.01,2013-02-01 20:11:00,
2013-02-01 14:16:00,27.4,14.2,30.35,South,183,3.0,9.0,57,0.00,,---,0.00,VWS V14.01,2013-02-01 20:16:00,
2013-02-01 14:21:00,27.1,13.5,30.25,South,172,9.0,9.0,56,0.00,,---,0.00,VWS V14.01,2013-02-01 20:21:00,
2013-02-01 14:26:00,27.2,13.6,30.35,South,176,6.0,10.0,56,0.00,,---,0.00,VWS V14.01,2013-02-01 20:26:00,
2013-02-01 14:31:00,27.9,14.6,30.25,South,190,5.0,6.0,57,0.00,,---,0.00,VWS V14.01,2013-02-01 20:31:00,
2013-02-01 14:36:00,28.3,14.6,30.34,South,185,4.0,8.0,56,0.00,,---,0.00,VWS V14.01,2013-02-01 20:36:00,
2013-02-01 14:41:00,27.9,14.2,30.25,SSE,163,6.0,7.0,56,0.00,,---,0.00,VWS V14.01,2013-02-01 20:41:00,
2013-02-01 14:46:00,27.8,14.6,30.25,South,189,8.0,8.0,57,0.00,,---,0.00,VWS V14.01,2013-02-01 20:46:00,
2013-02-01 14:51:00,27.8,14.6,30.24,South,191,5.0,8.0,57,0.00,,---,0.00,VWS V14.01,2013-02-01 20:51:00,
2013-02-01 14:56:00,28.0,14.8,30.34,SSW,213,4.0,9.0,57,0.00,,---,0.00,VWS V14.01,2013-02-01 20:56:00,
2013-02-01 15:01:00,28.1,14.8,30.24,South,173,4.0,5.0,57,0.00,,---,0.00,VWS V14.01,2013-02-01 21:01:00,
2013-02-01 15:06:00,28.3,15.0,30.24,WSW,243,4.0,8.0,57,0.00,,---,0.00,VWS V14.01,2013-02-01 21:06:00,
2013-02-01 15:11:00,28.4,15.1,30.33,South,174,6.0,8.0,57,0.00,,---,0.00,VWS V14.01,2013-02-01 21:11:00,
2013-02-01 15:16:00,28.5,14.8,30.33,SSE,165,6.0,11.0,56,0.00,,---,0.00,VWS V14.01,2013-02-01 21:16:00,
2013-02-01 15:21:00,28.5,15.2,30.33,WSW,249,1.0,8.0,57,0.00,,---,0.00,VWS V14.01,2013-02-01 21:21:00,
2013-02-01 15:26:00,28.4,14.7,30.33,SSE,147,5.0,9.0,56,0.00,,---,0.00,VWS V14.01,2013-02-01 21:26:00,
2013-02-01 15:31:00,28.4,14.7,30.32,South,170,3.0,6.0,56,0.00,,---,0.00,VWS V14.01,2013-02-01 21:31:00,
2013-02-01 15:36:00,28.3,14.2,30.32,SSW,192,3.0,7.0,55,0.00,,---,0.00,VWS V14.01,2013-02-01 21:36:00,
2013-02-01 15:41:00,28.3,14.6,30.32,SSW,213,0.0,4.0,56,0.00,,---,0.00,VWS V14.01,2013-02-01 21:41:00,
2013-02-01 15:46:00,28.4,14.3,30.23,SW,224,2.0,3.0,55,0.00,,---,0.00,VWS V14.01,2013-02-01 21:46:00,
2013-02-01 15:51:00,28.3,14.2,30.32,SSW,195,3.0,9.0,55,0.00,,---,0.00,VWS V14.01,2013-02-01 21:51:00,
2013-02-01 15:56:00,28.1,14.0,30.22,South,178,4.0,5.0,55,0.00,,---,0.00,VWS V14.01,2013-02-01 21:56:00,
2013-02-01 16:01:00,28.1,14.4,30.22,SSE,161,3.0,3.0,56,0.00,,---,0.00,VWS V14.01,2013-02-01 22:01:00,
2013-02-01 16:06:00,28.2,14.5,30.22,SSE,154,6.0,7.0,56,0.00,,---,0.00,VWS V14.01,2013-02-01 22:06:00,
2013-02-01 16:11:00,28.1,14.8,30.22,South,182,6.0,7.0,57,0.00,,---,0.00,VWS V14.01,2013-02-01 22:11:00,
2013-02-01 16:16:00,28.0,15.1,30.31,South,182,4.0,8.0,58,0.00,,---,0.00,VWS V14.01,2013-02-01 22:16:00,
2013-02-01 16:21:00,28.0,14.8,30.21,SW,231,0.0,1.0,57,0.00,,---,0.00,VWS V14.01,2013-02-01 22:21:00,
2013-02-01 16:26:00,28.2,15.7,30.21,SW,231,4.0,7.0,59,0.00,,---,0.00,VWS V14.01,2013-02-01 22:26:00,
2013-02-01 16:31:00,28.2,15.3,30.21,South,177,7.0,7.0,58,0.00,,---,0.00,VWS V14.01,2013-02-01 22:31:00,
2013-02-01 16:36:00,28.1,15.2,30.21,SSW,192,5.0,7.0,58,0.00,,---,0.00,VWS V14.01,2013-02-01 22:36:00,
2013-02-01 16:41:00,27.9,15.1,30.21,South,174,3.0,6.0,58,0.00,,---,0.00,VWS V14.01,2013-02-01 22:41:00,
2013-02-01 16:46:00,27.8,15.4,30.30,SSE,165,4.0,10.0,59,0.00,,---,0.00,VWS V14.01,2013-02-01 22:46:00,
2013-02-01 16:51:00,27.9,15.4,30.20,SSW,213,2.0,5.0,59,0.00,,---,0.00,VWS V14.01,2013-02-01 22:51:00,
2013-02-01 16:56:00,27.9,15.4,30.29,South,170,2.0,6.0,59,0.00,,---,0.00,VWS V14.01,2013-02-01 22:56:00,
2013-02-01 17:01:00,28.0,15.1,30.19,SW,215,2.0,2.0,58,0.00,,---,0.00,VWS V14.01,2013-02-01 23:01:00,
2013-02-01 17:06:00,28.0,15.1,30.19,SSW,209,3.0,3.0,58,0.00,,---,0.00,VWS V14.01,2013-02-01 23:06:00,
2013-02-01 17:11:00,28.0,15.1,30.18,South,180,8.0,9.0,58,0.00,,---,0.00,VWS V14.01,2013-02-01 23:11:00,
2013-02-01 17:16:00,27.9,15.1,30.27,SE,145,3.0,6.0,58,0.00,,---,0.00,VWS V14.01,2013-02-01 23:16:00,
2013-02-01 17:21:00,27.8,15.0,30.18,South,178,6.0,6.0,58,0.00,,---,0.00,VWS V14.01,2013-02-01 23:21:00,
2013-02-01 17:26:00,27.7,14.9,30.26,South,176,4.0,7.0,58,0.00,,---,0.00,VWS V14.01,2013-02-01 23:26:00,
2013-02-01 17:31:00,27.6,14.8,30.26,SSE,159,3.0,9.0,58,0.00,,---,0.00,VWS V14.01,2013-02-01 23:31:00,
2013-02-01 17:36:00,27.6,15.2,30.17,SSE,165,3.0,4.0,59,0.00,,---,0.00,VWS V14.01,2013-02-01 23:36:00,
2013-02-01 17:41:00,27.5,15.4,30.26,South,185,2.0,6.0,60,0.00,,---,0.00,VWS V14.01,2013-02-01 23:41:00,
2013-02-01 17:46:00,27.5,15.4,30.26,SSW,193,3.0,7.0,60,0.00,,---,0.00,VWS V14.01,2013-02-01 23:46:00,
2013-02-01 17:51:00,27.4,15.4,30.25,South,186,1.0,5.0,60,0.00,,---,0.00,VWS V14.01,2013-02-01 23:51:00,
2013-02-01 17:56:00,27.3,15.6,30.25,South,170,3.0,4.0,61,0.00,,---,0.00,VWS V14.01,2013-02-01 23:56:00,
2013-02-01 18:01:00,27.3,15.3,30.16,South,180,5.0,5.0,60,0.00,,---,0.00,VWS V14.01,2013-02-02 00:01:00,
2013-02-01 18:06:00,27.2,15.6,30.25,South,180,4.0,5.0,61,0.00,,---,0.00,VWS V14.01,2013-02-02 00:06:00,
2013-02-01 18:11:00,27.2,15.6,30.16,SSE,164,1.0,1.0,61,0.00,,---,0.00,VWS V14.01,2013-02-02 00:11:00,
2013-02-01 18:16:00,27.0,15.4,30.16,SSE,165,3.0,3.0,61,0.00,,---,0.00,VWS V14.01,2013-02-02 00:16:00,
2013-02-01 18:21:00,26.9,15.3,30.16,South,170,3.0,3.0,61,0.00,,---,0.00,VWS V14.01,2013-02-02 00:21:00,
2013-02-01 18:26:00,26.8,15.5,30.16,South,189,2.0,3.0,62,0.00,,---,0.00,VWS V14.01,2013-02-02 00:26:00,
2013-02-01 18:31:00,26.6,15.7,30.17,South,189,2.0,2.0,63,0.00,,---,0.00,VWS V14.01,2013-02-02 00:31:00,
2013-02-01 18:36:00,26.5,15.6,30.25,South,189,0.0,1.0,63,0.00,,---,0.00,VWS V14.01,2013-02-02 00:36:00,
2013-02-01 18:41:00,26.3,15.8,30.18,South,189,1.0,1.0,64,0.00,,---,0.00,VWS V14.01,2013-02-02 00:41:00,
2013-02-01 18:46:00,26.3,15.8,30.19,SW,218,3.0,3.0,64,0.00,,---,0.00,VWS V14.01,2013-02-02 00:46:00,
2013-02-01 18:51:00,26.3,15.4,30.27,SW,227,0.0,2.0,63,0.00,,---,0.00,VWS V14.01,2013-02-02 00:51:00,
2013-02-01 18:56:00,26.2,15.7,30.18,SW,227,0.0,0.0,64,0.00,,---,0.00,VWS V14.01,2013-02-02 00:56:00,
2013-02-01 19:01:00,25.9,15.8,30.18,South,170,3.0,5.0,65,0.00,,---,0.00,VWS V14.01,2013-02-02 01:01:00,
2013-02-01 19:06:00,25.8,16.4,30.26,South,170,4.0,4.0,67,0.00,,---,0.00,VWS V14.01,2013-02-02 01:06:00,
2013-02-01 19:11:00,25.5,16.1,30.26,South,170,4.0,4.0,67,0.00,,---,0.00,VWS V14.01,2013-02-02 01:11:00,
2013-02-01 19:16:00,25.6,16.2,30.26,South,190,2.0,7.0,67,0.00,,---,0.00,VWS V14.01,2013-02-02 01:16:00,
2013-02-01 19:21:00,25.5,16.1,30.17,South,190,1.0,1.0,67,0.00,,---,0.00,VWS V14.01,2013-02-02 01:21:00,
2013-02-01 19:26:00,25.4,16.3,30.25,South,190,2.0,2.0,68,0.00,,---,0.00,VWS V14.01,2013-02-02 01:26:00,
2013-02-01 19:31:00,25.3,16.2,30.26,South,190,0.0,2.0,68,0.00,,---,0.00,VWS V14.01,2013-02-02 01:31:00,
2013-02-01 19:35:00,25.3,16.2,30.26,South,190,1.0,1.0,68,0.00,,---,0.00,VWS V14.01,2013-02-02 01:35:00,
2013-02-01 19:40:00,25.4,16.3,30.26,SSW,193,0.0,3.0,68,0.00,,---,0.00,VWS V14.01,2013-02-02 01:40:00,
2013-02-01 19:45:00,25.4,16.0,30.25,SSW,193,3.0,3.0,67,0.00,,---,0.00,VWS V14.01,2013-02-02 01:45:00,
2013-02-01 19:50:00,25.3,16.2,30.25,SSW,193,1.0,3.0,68,0.00,,---,0.00,VWS V14.01,2013-02-02 01:50:00,
2013-02-01 19:55:00,25.1,16.0,30.17,SSW,193,0.0,3.0,68,0.00,,---,0.00,VWS V14.01,2013-02-02 01:55:00,
2013-02-01 20:00:00,25.2,16.1,30.25,South,173,3.0,4.0,68,0.00,,---,0.00,VWS V14.01,2013-02-02 02:00:00,
2013-02-01 20:05:00,25.3,16.2,30.25,SSE,165,5.0,5.0,68,0.00,,---,0.00,VWS V14.01,2013-02-02 02:05:00,
2013-02-01 20:10:00,25.3,16.2,30.16,South,184,1.0,5.0,68,0.00,,---,0.00,VWS V14.01,2013-02-02 02:10:00,
2013-02-01 20:15:00,25.3,16.2,30.25,South,177,2.0,3.0,68,0.00,,---,0.00,VWS V14.01,2013-02-02 02:15:00,
2013-02-01 20:20:00,25.3,15.9,30.16,South,172,1.0,5.0,67,0.00,,---,0.00,VWS V14.01,2013-02-02 02:20:00,
2013-02-01 20:25:00,25.3,15.9,30.16,SSW,200,0.0,4.0,67,0.00,,---,0.00,VWS V14.01,2013-02-02 02:25:00,
2013-02-01 20:30:00,25.2,15.8,30.25,SSW,200,0.0,2.0,67,0.00,,---,0.00,VWS V14.01,2013-02-02 02:30:00,
2013-02-01 20:35:00,25.2,15.8,30.25,SSW,208,0.0,3.0,67,0.00,,---,0.00,VWS V14.01,2013-02-02 02:35:00,
2013-02-01 20:40:00,25.2,15.8,30.25,SW,226,0.0,2.0,67,0.00,,---,0.00,VWS V14.01,2013-02-02 02:40:00,
2013-02-01 20:45:00,25.2,15.8,30.16,SW,228,0.0,3.0,67,0.00,,---,0.00,VWS V14.01,2013-02-02 02:45:00,
2013-02-01 20:50:00,25.2,15.8,30.16,SW,228,4.0,5.0,67,0.00,,---,0.00,VWS V14.01,2013-02-02 02:50:00,
2013-02-01 20:55:00,25.2,15.8,30.16,West,266,0.0,7.0,67,0.00,,---,0.00,VWS V14.01,2013-02-02 02:55:00,
2013-02-01 21:00:00,25.0,15.6,30.25,West,266,0.0,2.0,67,0.00,,---,0.00,VWS V14.01,2013-02-02 03:00:00,
2013-02-01 21:05:00,24.9,15.5,30.16,SW,222,2.0,3.0,67,0.00,,---,0.00,VWS V14.01,2013-02-02 03:05:00,
2013-02-01 21:10:00,24.9,15.5,30.25,SW,222,0.0,2.0,67,0.00,,---,0.00,VWS V14.01,2013-02-02 03:10:00,
2013-02-01 21:15:00,24.8,15.4,30.24,SW,222,0.0,3.0,67,0.00,,---,0.00,VWS V14.01,2013-02-02 03:15:00,
2013-02-01 21:20:00,24.8,15.4,30.24,SW,222,0.0,2.0,67,0.00,,---,0.00,VWS V14.01,2013-02-02 03:20:00,
2013-02-01 21:25:00,24.8,15.4,30.16,SW,222,1.0,3.0,67,0.00,,---,0.00,VWS V14.01,2013-02-02 03:25:00,
2013-02-01 21:30:00,25.0,15.6,30.16,SW,222,1.0,2.0,67,0.00,,---,0.00,VWS V14.01,2013-02-02 03:30:00,
2013-02-01 21:35:00,25.1,15.7,30.24,SW,222,0.0,3.0,67,0.00,,---,0.00,VWS V14.01,2013-02-02 03:35:00,
2013-02-01 21:40:00,25.1,15.7,30.15,SW,222,0.0,2.0,67,0.00,,---,0.00,VWS V14.01,2013-02-02 03:40:00,
2013-02-01 21:45:00,25.1,15.7,30.24,SW,222,0.0,0.0,67,0.00,,---,0.00,VWS V14.01,2013-02-02 03:45:00,
2013-02-01 21:50:00,25.0,15.9,30.23,SW,222,1.0,3.0,68,0.00,,---,0.00,VWS V14.01,2013-02-02 03:50:00,
2013-02-01 21:55:00,25.1,16.0,30.15,SW,222,0.0,2.0,68,0.00,,---,0.00,VWS V14.01,2013-02-02 03:55:00,
2013-02-01 22:00:00,25.2,15.8,30.15,SW,221,0.0,3.0,67,0.00,,---,0.00,VWS V14.01,2013-02-02 04:00:00,
2013-02-01 22:05:00,25.2,15.8,30.23,SW,221,0.0,2.0,67,0.00,,---,0.00,VWS V14.01,2013-02-02 04:05:00,
2013-02-01 22:10:00,25.3,15.9,30.23,South,175,1.0,5.0,67,0.00,,---,0.00,VWS V14.01,2013-02-02 04:10:00,
2013-02-01 22:15:00,25.3,15.9,30.15,South,175,0.0,2.0,67,0.00,,---,0.00,VWS V14.01,2013-02-02 04:15:00,
2013-02-01 22:20:00,25.3,15.9,30.23,South,175,0.0,0.0,67,0.00,,---,0.00,VWS V14.01,2013-02-02 04:20:00,
2013-02-01 22:25:00,25.4,16.0,30.14,South,175,0.0,2.0,67,0.00,,---,0.00,VWS V14.01,2013-02-02 04:25:00,
2013-02-01 22:30:00,25.5,16.1,30.22,South,175,1.0,1.0,67,0.00,,---,0.00,VWS V14.01,2013-02-02 04:30:00,
2013-02-01 22:35:00,25.6,16.2,30.22,South,175,0.0,0.0,67,0.00,,---,0.00,VWS V14.01,2013-02-02 04:35:00,
2013-02-01 22:40:00,25.7,16.3,30.22,South,175,0.0,0.0,67,0.00,,---,0.00,VWS V14.01,2013-02-02 04:40:00,
2013-02-01 22:45:00,25.8,16.4,30.14,South,175,0.0,1.0,67,0.00,,---,0.00,VWS V14.01,2013-02-02 04:45:00,
2013-02-01 22:50:00,25.9,16.1,30.22,South,175,0.0,2.0,66,0.00,,---,0.00,VWS V14.01,2013-02-02 04:50:00,
2013-02-01 22:55:00,26.1,16.0,30.14,SW,228,2.0,4.0,65,0.00,,---,0.00,VWS V14.01,2013-02-02 04:55:00,
2013-02-01 23:00:00,26.2,16.1,30.14,SSW,201,0.0,5.0,65,0.00,,---,0.00,VWS V14.01,2013-02-02 05:00:00,
2013-02-01 23:05:00,26.3,16.1,30.14,SSW,201,3.0,3.0,65,0.00,,---,0.00,VWS V14.01,2013-02-02 05:05:00,
2013-02-01 23:10:00,26.4,16.2,30.22,SW,230,0.0,5.0,65,0.00,,---,0.00,VWS V14.01,2013-02-02 05:10:00,
2013-02-01 23:15:00,26.5,16.3,30.13,SW,233,0.0,4.0,65,0.00,,---,0.00,VWS V14.01,2013-02-02 05:15:00,
2013-02-01 23:20:00,26.6,16.1,30.21,SW,234,2.0,3.0,64,0.00,,---,0.00,VWS V14.01,2013-02-02 05:20:00,
2013-02-01 23:25:00,26.7,16.2,30.13,SSW,206,0.0,3.0,64,0.00,,---,0.00,VWS V14.01,2013-02-02 05:25:00,
2013-02-01 23:30:00,26.7,16.5,30.13,WSW,238,0.0,4.0,65,0.00,,---,0.00,VWS V14.01,2013-02-02 05:30:00,
2013-02-01 23:35:00,26.6,16.1,30.13,SW,236,0.0,5.0,64,0.00,,---,0.00,VWS V14.01,2013-02-02 05:35:00,
2013-02-01 23:40:00,26.5,16.0,30.12,SW,227,0.0,3.0,64,0.00,,---,0.00,VWS V14.01,2013-02-02 05:40:00,
2013-02-01 23:45:00,26.6,16.1,30.20,SW,217,0.0,2.0,64,0.00,,---,0.00,VWS V14.01,2013-02-02 05:45:00,
2013-02-01 23:50:00,26.6,16.4,30.12,SW,222,1.0,2.0,65,0.00,,---,0.00,VWS V14.01,2013-02-02 05:50:00,
2013-02-01 23:55:00,26.5,16.3,30.12,SW,221,1.0,4.0,65,0.00,,---,0.00,VWS V14.01,2013-02-02 05:55:00,